RYR36LM LIRN-LIPK
Flight info
| Callsign | RYR36LM |
|---|---|
| Flight time | 1h 4m |
| Altitude | 28000 |
| Route | ALAXI L995 PEMAR Z810 GOTMO DCT ASDOR |
| Aircraft | B738/M-SDE2E3FGHIRWXY/LB1 |
Departure
| Time | 2026-05-06 21:29 |
|---|---|
| Airport | Naples International Airport (LIRN) |
Arrival
| Time | 2026-05-06 22:34 |
|---|---|
| Airport | Forlì-Luigi Ridolfi International Airport (LIPK) |
| Time | Latitude | Longitude | Altitude | Speed | Heading |
|---|---|---|---|---|---|
| 2026-05-06 20:45 | 40.88008 | 14.28316 | 291 ft | 0 kts | 334° |
| 2026-05-06 21:21 | 40.88027 | 14.28306 | 295 ft | 6 kts | 350° |
| 2026-05-06 21:21 | 40.88051 | 14.28330 | 290 ft | 8 kts | 58° |
| 2026-05-06 21:22 | 40.88056 | 14.28405 | 291 ft | 9 kts | 91° |
| 2026-05-06 21:22 | 40.88052 | 14.28467 | 287 ft | 9 kts | 95° |
| 2026-05-06 21:23 | 40.88052 | 14.28476 | 287 ft | 9 kts | 95° |
| 2026-05-06 21:23 | 40.88047 | 14.28543 | 286 ft | 10 kts | 95° |
| 2026-05-06 21:23 | 40.88063 | 14.28632 | 286 ft | 11 kts | 66° |
| 2026-05-06 21:23 | 40.88108 | 14.28714 | 281 ft | 12 kts | 50° |
| 2026-05-06 21:24 | 40.88163 | 14.28804 | 278 ft | 13 kts | 54° |
| 2026-05-06 21:24 | 40.88220 | 14.28903 | 275 ft | 14 kts | 53° |
| 2026-05-06 21:24 | 40.88270 | 14.28993 | 272 ft | 15 kts | 53° |
| 2026-05-06 21:24 | 40.88337 | 14.29109 | 269 ft | 16 kts | 52° |
| 2026-05-06 21:25 | 40.88405 | 14.29224 | 265 ft | 17 kts | 46° |
| 2026-05-06 21:25 | 40.88481 | 14.29354 | 261 ft | 18 kts | 54° |
| 2026-05-06 21:25 | 40.88557 | 14.29494 | 256 ft | 19 kts | 54° |
| 2026-05-06 21:25 | 40.88640 | 14.29633 | 252 ft | 20 kts | 52° |
| 2026-05-06 21:26 | 40.88725 | 14.29781 | 247 ft | 20 kts | 53° |
| 2026-05-06 21:26 | 40.88811 | 14.29930 | 243 ft | 21 kts | 51° |
| 2026-05-06 21:26 | 40.88896 | 14.30080 | 238 ft | 21 kts | 54° |
| 2026-05-06 21:26 | 40.88980 | 14.30219 | 236 ft | 10 kts | 50° |
| 2026-05-06 21:27 | 40.89043 | 14.30252 | 233 ft | 11 kts | 346° |
| 2026-05-06 21:27 | 40.89105 | 14.30202 | 231 ft | 10 kts | 313° |
| 2026-05-06 21:27 | 40.89107 | 14.30143 | 235 ft | 7 kts | 245° |
| 2026-05-06 21:27 | 40.89103 | 14.30134 | 236 ft | 0 kts | 238° |
| 2026-05-06 21:28 | 40.89007 | 14.29935 | 240 ft | 63 kts | 237° |
| 2026-05-06 21:29 | 40.88643 | 14.29165 | 263 ft | 132 kts | 238° |
| 2026-05-06 21:29 | 40.88045 | 14.27979 | 398 ft | 177 kts | 236° |
| 2026-05-06 21:29 | 40.87574 | 14.27044 | 996 ft | 176 kts | 234° |
| 2026-05-06 21:29 | 40.87153 | 14.26213 | 1632 ft | 171 kts | 237° |
| 2026-05-06 21:30 | 40.86688 | 14.25234 | 2481 ft | 160 kts | 238° |
| 2026-05-06 21:30 | 40.86226 | 14.24167 | 3231 ft | 161 kts | 240° |
| 2026-05-06 21:30 | 40.85629 | 14.22788 | 3662 ft | 188 kts | 226° |
| 2026-05-06 21:30 | 40.84521 | 14.21884 | 4289 ft | 189 kts | 186° |
| 2026-05-06 21:31 | 40.83239 | 14.22238 | 5067 ft | 196 kts | 145° |
| 2026-05-06 21:31 | 40.82296 | 14.23561 | 5861 ft | 198 kts | 131° |
| 2026-05-06 21:31 | 40.81434 | 14.24963 | 6588 ft | 200 kts | 139° |
| 2026-05-06 21:31 | 40.80316 | 14.26039 | 7178 ft | 199 kts | 157° |
| 2026-05-06 21:32 | 40.79051 | 14.26718 | 7837 ft | 196 kts | 167° |
| 2026-05-06 21:32 | 40.76323 | 14.27569 | 8933 ft | 206 kts | 175° |
| 2026-05-06 21:32 | 40.74891 | 14.27888 | 9540 ft | 209 kts | 175° |
| 2026-05-06 21:33 | 40.73485 | 14.28224 | 10177 ft | 210 kts | 169° |
| 2026-05-06 21:33 | 40.72167 | 14.29206 | 10570 ft | 233 kts | 137° |
| 2026-05-06 21:33 | 40.71448 | 14.31257 | 10837 ft | 263 kts | 99° |
| 2026-05-06 21:33 | 40.71684 | 14.33680 | 11315 ft | 271 kts | 77° |
| 2026-05-06 21:34 | 40.72165 | 14.36062 | 12033 ft | 266 kts | 78° |
| 2026-05-06 21:34 | 40.72584 | 14.38398 | 12768 ft | 259 kts | 80° |
| 2026-05-06 21:34 | 40.73081 | 14.40700 | 13237 ft | 268 kts | 65° |
| 2026-05-06 21:34 | 40.74261 | 14.42714 | 13262 ft | 290 kts | 33° |
| 2026-05-06 21:35 | 40.76120 | 14.43748 | 13494 ft | 296 kts | 2° |
| 2026-05-06 21:35 | 40.78161 | 14.43465 | 13767 ft | 294 kts | 334° |
| 2026-05-06 21:35 | 40.80010 | 14.42437 | 14474 ft | 287 kts | 331° |
| 2026-05-06 21:35 | 40.81905 | 14.41457 | 14867 ft | 299 kts | 336° |
| 2026-05-06 21:36 | 40.83927 | 14.40644 | 15319 ft | 307 kts | 339° |
| 2026-05-06 21:36 | 40.86007 | 14.39980 | 15905 ft | 308 kts | 342° |
| 2026-05-06 21:36 | 40.88119 | 14.39449 | 16498 ft | 309 kts | 343° |
| 2026-05-06 21:36 | 40.90253 | 14.38938 | 16989 ft | 314 kts | 344° |
| 2026-05-06 21:37 | 40.92406 | 14.38395 | 17436 ft | 316 kts | 338° |
| 2026-05-06 21:37 | 40.94362 | 14.37150 | 17705 ft | 311 kts | 316° |
| 2026-05-06 21:37 | 40.95970 | 14.35292 | 18315 ft | 302 kts | 310° |
| 2026-05-06 21:37 | 40.97471 | 14.33463 | 19118 ft | 290 kts | 310° |
| 2026-05-06 21:38 | 40.98981 | 14.31685 | 19358 ft | 300 kts | 311° |
| 2026-05-06 21:38 | 40.99208 | 14.31421 | 19400 ft | 301 kts | 311° |
| 2026-05-06 21:38 | 40.99902 | 14.30620 | 19537 ft | 303 kts | 312° |
| 2026-05-06 21:38 | 41.01488 | 14.28811 | 19932 ft | 305 kts | 312° |
| 2026-05-06 21:39 | 41.03116 | 14.26971 | 20369 ft | 306 kts | 312° |
| 2026-05-06 21:39 | 41.04741 | 14.25143 | 20778 ft | 308 kts | 312° |
| 2026-05-06 21:39 | 41.06381 | 14.23300 | 21172 ft | 310 kts | 312° |
| 2026-05-06 21:39 | 41.08036 | 14.21442 | 21571 ft | 312 kts | 312° |
| 2026-05-06 21:40 | 41.09697 | 14.19578 | 21952 ft | 313 kts | 312° |
| 2026-05-06 21:40 | 41.10828 | 14.18308 | 22215 ft | 315 kts | 312° |
| 2026-05-06 21:40 | 41.11363 | 14.17708 | 22339 ft | 315 kts | 312° |
| 2026-05-06 21:40 | 41.13019 | 14.15847 | 22713 ft | 317 kts | 312° |
| 2026-05-06 21:41 | 41.14729 | 14.13925 | 23090 ft | 319 kts | 312° |
| 2026-05-06 21:41 | 41.16403 | 14.12043 | 23444 ft | 321 kts | 311° |
| 2026-05-06 21:41 | 41.18112 | 14.10119 | 23771 ft | 323 kts | 311° |
| 2026-05-06 21:41 | 41.19826 | 14.08188 | 24060 ft | 325 kts | 312° |
| 2026-05-06 21:42 | 41.21554 | 14.06241 | 24342 ft | 327 kts | 312° |
| 2026-05-06 21:42 | 41.23299 | 14.04272 | 24626 ft | 329 kts | 312° |
| 2026-05-06 21:42 | 41.25049 | 14.02298 | 24906 ft | 331 kts | 312° |
| 2026-05-06 21:42 | 41.26809 | 14.00311 | 25185 ft | 333 kts | 312° |
| 2026-05-06 21:43 | 41.28579 | 13.98310 | 25447 ft | 335 kts | 312° |
| 2026-05-06 21:43 | 41.30333 | 13.96264 | 25705 ft | 334 kts | 308° |
| 2026-05-06 21:43 | 41.31963 | 13.94073 | 25969 ft | 333 kts | 306° |
| 2026-05-06 21:43 | 41.33532 | 13.91833 | 26225 ft | 334 kts | 305° |
| 2026-05-06 21:44 | 41.35110 | 13.89550 | 26495 ft | 336 kts | 305° |
| 2026-05-06 21:44 | 41.36697 | 13.87259 | 26755 ft | 338 kts | 305° |
| 2026-05-06 21:44 | 41.38299 | 13.84960 | 27008 ft | 339 kts | 305° |
| 2026-05-06 21:44 | 41.39913 | 13.82654 | 27264 ft | 341 kts | 305° |
| 2026-05-06 21:45 | 41.41538 | 13.80342 | 27515 ft | 342 kts | 306° |
| 2026-05-06 21:45 | 41.43166 | 13.78030 | 27758 ft | 343 kts | 306° |
| 2026-05-06 21:45 | 41.44802 | 13.75707 | 28007 ft | 344 kts | 306° |
| 2026-05-06 21:45 | 41.46436 | 13.73387 | 28022 ft | 347 kts | 305° |
| 2026-05-06 21:46 | 41.49718 | 13.68729 | 28027 ft | 344 kts | 305° |
| 2026-05-06 21:46 | 41.53004 | 13.64059 | 28034 ft | 341 kts | 305° |
| 2026-05-06 21:47 | 41.56225 | 13.59471 | 28042 ft | 340 kts | 305° |
| 2026-05-06 21:47 | 41.59451 | 13.54867 | 28043 ft | 339 kts | 305° |
| 2026-05-06 21:48 | 41.62684 | 13.50244 | 28043 ft | 341 kts | 305° |
| 2026-05-06 21:48 | 41.65926 | 13.45602 | 28053 ft | 343 kts | 305° |
| 2026-05-06 21:49 | 41.69197 | 13.40914 | 28035 ft | 345 kts | 305° |
| 2026-05-06 21:49 | 41.72483 | 13.36195 | 28039 ft | 347 kts | 305° |
| 2026-05-06 21:50 | 41.75748 | 13.31496 | 28031 ft | 347 kts | 305° |
| 2026-05-06 21:50 | 41.79034 | 13.26754 | 28033 ft | 346 kts | 306° |
| 2026-05-06 21:51 | 41.82299 | 13.22035 | 28031 ft | 346 kts | 306° |
| 2026-05-06 21:51 | 41.85570 | 13.17290 | 28023 ft | 345 kts | 306° |
| 2026-05-06 21:52 | 41.88811 | 13.12581 | 28040 ft | 344 kts | 306° |
| 2026-05-06 21:52 | 41.92062 | 13.07852 | 28035 ft | 343 kts | 306° |
| 2026-05-06 21:53 | 41.95802 | 13.03756 | 28035 ft | 356 kts | 326° |
| 2026-05-06 21:53 | 41.98118 | 13.02486 | 28033 ft | 364 kts | 337° |
| 2026-05-06 21:53 | 42.00560 | 13.01575 | 28033 ft | 365 kts | 339° |
| 2026-05-06 21:54 | 42.05455 | 12.99862 | 28037 ft | 368 kts | 339° |
| 2026-05-06 21:54 | 42.10424 | 12.98119 | 28039 ft | 369 kts | 339° |
| 2026-05-06 21:55 | 42.15398 | 12.96347 | 28025 ft | 369 kts | 339° |
| 2026-05-06 21:55 | 42.20359 | 12.94561 | 28025 ft | 369 kts | 339° |
| 2026-05-06 21:56 | 42.25357 | 12.92750 | 28025 ft | 376 kts | 339° |
| 2026-05-06 21:56 | 42.30475 | 12.90889 | 28030 ft | 385 kts | 339° |
| 2026-05-06 21:57 | 42.35658 | 12.89007 | 28036 ft | 388 kts | 339° |
| 2026-05-06 21:57 | 42.40908 | 12.87099 | 28031 ft | 390 kts | 339° |
| 2026-05-06 21:58 | 42.46142 | 12.85194 | 28024 ft | 390 kts | 339° |
| 2026-05-06 21:58 | 42.51407 | 12.83273 | 28028 ft | 390 kts | 339° |
| 2026-05-06 21:59 | 42.56614 | 12.81369 | 28019 ft | 390 kts | 339° |
| 2026-05-06 21:59 | 42.61844 | 12.79452 | 28016 ft | 389 kts | 339° |
| 2026-05-06 22:00 | 42.67066 | 12.77535 | 28009 ft | 388 kts | 339° |
| 2026-05-06 22:00 | 42.69691 | 12.76568 | 27532 ft | 395 kts | 339° |
| 2026-05-06 22:00 | 42.72357 | 12.75585 | 26793 ft | 395 kts | 339° |
| 2026-05-06 22:01 | 42.75000 | 12.74612 | 26136 ft | 394 kts | 340° |
| 2026-05-06 22:01 | 42.77607 | 12.73653 | 25541 ft | 389 kts | 340° |
| 2026-05-06 22:01 | 42.80190 | 12.72705 | 25063 ft | 381 kts | 340° |
| 2026-05-06 22:01 | 42.82717 | 12.71777 | 24744 ft | 370 kts | 340° |
| 2026-05-06 22:02 | 42.85174 | 12.70874 | 24091 ft | 369 kts | 340° |
| 2026-05-06 22:02 | 42.87657 | 12.69952 | 23445 ft | 369 kts | 340° |
| 2026-05-06 22:02 | 42.90125 | 12.69036 | 22793 ft | 366 kts | 340° |
| 2026-05-06 22:02 | 42.92570 | 12.68130 | 22229 ft | 362 kts | 340° |
| 2026-05-06 22:03 | 42.94991 | 12.67232 | 21689 ft | 357 kts | 340° |
| 2026-05-06 22:03 | 42.97381 | 12.66346 | 21166 ft | 353 kts | 340° |
| 2026-05-06 22:03 | 42.99724 | 12.65476 | 20662 ft | 349 kts | 341° |
| 2026-05-06 22:03 | 43.02060 | 12.64608 | 20145 ft | 345 kts | 341° |
| 2026-05-06 22:04 | 43.04378 | 12.63745 | 19661 ft | 343 kts | 341° |
| 2026-05-06 22:04 | 43.06645 | 12.62900 | 19158 ft | 341 kts | 341° |
| 2026-05-06 22:04 | 43.08926 | 12.62049 | 18651 ft | 339 kts | 341° |
| 2026-05-06 22:04 | 43.10460 | 12.61477 | 18302 ft | 339 kts | 341° |
| 2026-05-06 22:05 | 43.13464 | 12.60356 | 17589 ft | 335 kts | 341° |
| 2026-05-06 22:05 | 43.15694 | 12.59525 | 17169 ft | 329 kts | 341° |
| 2026-05-06 22:05 | 43.17884 | 12.58708 | 16789 ft | 323 kts | 341° |
| 2026-05-06 22:05 | 43.20047 | 12.57900 | 16406 ft | 319 kts | 341° |
| 2026-05-06 22:06 | 43.22170 | 12.57105 | 16021 ft | 317 kts | 341° |
| 2026-05-06 22:06 | 43.23591 | 12.56573 | 15773 ft | 316 kts | 341° |
| 2026-05-06 22:06 | 43.25698 | 12.55783 | 15413 ft | 313 kts | 341° |
| 2026-05-06 22:06 | 43.27795 | 12.54996 | 15047 ft | 312 kts | 341° |
| 2026-05-06 22:07 | 43.29893 | 12.54208 | 14678 ft | 310 kts | 341° |
| 2026-05-06 22:07 | 43.31958 | 12.53433 | 14318 ft | 308 kts | 341° |
| 2026-05-06 22:07 | 43.34036 | 12.52652 | 13959 ft | 307 kts | 341° |
| 2026-05-06 22:07 | 43.36087 | 12.51881 | 13587 ft | 305 kts | 341° |
| 2026-05-06 22:08 | 43.38126 | 12.51113 | 13194 ft | 303 kts | 341° |
| 2026-05-06 22:08 | 43.40165 | 12.50345 | 12779 ft | 302 kts | 341° |
| 2026-05-06 22:08 | 43.42180 | 12.49585 | 12414 ft | 300 kts | 341° |
| 2026-05-06 22:08 | 43.44162 | 12.48838 | 12020 ft | 299 kts | 341° |
| 2026-05-06 22:09 | 43.46172 | 12.48081 | 11653 ft | 298 kts | 341° |
| 2026-05-06 22:09 | 43.48166 | 12.47328 | 11271 ft | 296 kts | 341° |
| 2026-05-06 22:09 | 43.50149 | 12.46578 | 10912 ft | 295 kts | 341° |
| 2026-05-06 22:09 | 43.52117 | 12.45836 | 10540 ft | 293 kts | 340° |
| 2026-05-06 22:10 | 43.54074 | 12.45096 | 10186 ft | 291 kts | 340° |
| 2026-05-06 22:10 | 43.56032 | 12.44353 | 9835 ft | 290 kts | 340° |
| 2026-05-06 22:10 | 43.57975 | 12.43617 | 9432 ft | 290 kts | 340° |
| 2026-05-06 22:10 | 43.59920 | 12.42880 | 9043 ft | 288 kts | 340° |
| 2026-05-06 22:11 | 43.61839 | 12.42153 | 8741 ft | 283 kts | 340° |
| 2026-05-06 22:11 | 43.63732 | 12.41435 | 8422 ft | 280 kts | 340° |
| 2026-05-06 22:11 | 43.65601 | 12.40725 | 8118 ft | 277 kts | 340° |
| 2026-05-06 22:11 | 43.67459 | 12.40019 | 7809 ft | 275 kts | 340° |
| 2026-05-06 22:12 | 43.69276 | 12.39328 | 7527 ft | 276 kts | 340° |
| 2026-05-06 22:12 | 43.71148 | 12.38613 | 7264 ft | 278 kts | 340° |
| 2026-05-06 22:12 | 43.73038 | 12.37891 | 6978 ft | 281 kts | 340° |
| 2026-05-06 22:12 | 43.74904 | 12.37180 | 6647 ft | 277 kts | 341° |
| 2026-05-06 22:13 | 43.76725 | 12.36489 | 6328 ft | 270 kts | 340° |
| 2026-05-06 22:13 | 43.78511 | 12.35809 | 6028 ft | 264 kts | 341° |
| 2026-05-06 22:13 | 43.80275 | 12.35138 | 5669 ft | 257 kts | 340° |
| 2026-05-06 22:13 | 43.81955 | 12.34494 | 5407 ft | 245 kts | 340° |
| 2026-05-06 22:14 | 43.83582 | 12.33872 | 5128 ft | 244 kts | 340° |
| 2026-05-06 22:14 | 43.85267 | 12.33226 | 5073 ft | 259 kts | 340° |
| 2026-05-06 22:14 | 43.87045 | 12.32540 | 5048 ft | 267 kts | 341° |
| 2026-05-06 22:14 | 43.88835 | 12.31854 | 5051 ft | 267 kts | 341° |
| 2026-05-06 22:15 | 43.90661 | 12.31160 | 4774 ft | 275 kts | 341° |
| 2026-05-06 22:15 | 43.92505 | 12.30449 | 4353 ft | 279 kts | 341° |
| 2026-05-06 22:15 | 43.94337 | 12.29750 | 4150 ft | 266 kts | 341° |
| 2026-05-06 22:15 | 43.96086 | 12.29080 | 3883 ft | 258 kts | 340° |
| 2026-05-06 22:16 | 43.97785 | 12.28430 | 3658 ft | 245 kts | 341° |
| 2026-05-06 22:16 | 43.99380 | 12.27819 | 3519 ft | 228 kts | 341° |
| 2026-05-06 22:16 | 44.00861 | 12.27253 | 3416 ft | 215 kts | 341° |
| 2026-05-06 22:16 | 44.02276 | 12.26714 | 3354 ft | 208 kts | 340° |
| 2026-05-06 22:17 | 44.03668 | 12.26181 | 3243 ft | 209 kts | 340° |
| 2026-05-06 22:17 | 44.05062 | 12.25637 | 3227 ft | 205 kts | 338° |
| 2026-05-06 22:17 | 44.06404 | 12.25045 | 3122 ft | 205 kts | 340° |
| 2026-05-06 22:17 | 44.07814 | 12.24519 | 2860 ft | 214 kts | 341° |
| 2026-05-06 22:18 | 44.09260 | 12.23989 | 2695 ft | 211 kts | 341° |
| 2026-05-06 22:18 | 44.10650 | 12.23440 | 2564 ft | 202 kts | 340° |
| 2026-05-06 22:18 | 44.11972 | 12.22935 | 2513 ft | 188 kts | 341° |
| 2026-05-06 22:18 | 44.13151 | 12.22491 | 2492 ft | 174 kts | 341° |
| 2026-05-06 22:19 | 44.14299 | 12.22055 | 2504 ft | 169 kts | 340° |
| 2026-05-06 22:19 | 44.15272 | 12.21262 | 2467 ft | 161 kts | 307° |
| 2026-05-06 22:19 | 44.15744 | 12.19889 | 2245 ft | 157 kts | 275° |
| 2026-05-06 22:19 | 44.15981 | 12.18408 | 2006 ft | 156 kts | 285° |
| 2026-05-06 22:20 | 44.16353 | 12.17044 | 1825 ft | 152 kts | 288° |
| 2026-05-06 22:20 | 44.16763 | 12.15653 | 1658 ft | 157 kts | 287° |
| 2026-05-06 22:20 | 44.17082 | 12.14184 | 1387 ft | 160 kts | 282° |
| 2026-05-06 22:20 | 44.17417 | 12.12705 | 986 ft | 160 kts | 290° |
| 2026-05-06 22:21 | 44.17796 | 12.11278 | 659 ft | 154 kts | 289° |
| 2026-05-06 22:21 | 44.18282 | 12.09979 | 655 ft | 157 kts | 297° |
| 2026-05-06 22:21 | 44.18829 | 12.08610 | 1385 ft | 167 kts | 296° |
| 2026-05-06 22:21 | 44.19343 | 12.07208 | 2403 ft | 170 kts | 292° |
| 2026-05-06 22:22 | 44.19838 | 12.05551 | 3110 ft | 194 kts | 285° |
| 2026-05-06 22:22 | 44.20410 | 12.03540 | 3209 ft | 250 kts | 289° |
| 2026-05-06 22:22 | 44.21118 | 12.01108 | 3338 ft | 279 kts | 288° |
| 2026-05-06 22:22 | 44.21784 | 11.98681 | 3408 ft | 260 kts | 287° |
| 2026-05-06 22:23 | 44.22396 | 11.96340 | 3398 ft | 252 kts | 286° |
| 2026-05-06 22:23 | 44.23288 | 11.94293 | 3415 ft | 254 kts | 313° |
| 2026-05-06 22:23 | 44.24838 | 11.93064 | 3490 ft | 263 kts | 340° |
| 2026-05-06 22:23 | 44.26672 | 11.92900 | 3498 ft | 270 kts | 8° |
| 2026-05-06 22:24 | 44.28369 | 11.93923 | 3540 ft | 271 kts | 38° |
| 2026-05-06 22:24 | 44.29505 | 11.95930 | 3676 ft | 262 kts | 69° |
| 2026-05-06 22:24 | 44.29789 | 11.98298 | 3793 ft | 237 kts | 100° |
| 2026-05-06 22:24 | 44.29322 | 12.00352 | 3894 ft | 212 kts | 126° |
| 2026-05-06 22:25 | 44.28428 | 12.01943 | 3973 ft | 204 kts | 142° |
| 2026-05-06 22:25 | 44.27286 | 12.03043 | 3983 ft | 197 kts | 162° |
| 2026-05-06 22:25 | 44.26008 | 12.03702 | 3996 ft | 196 kts | 167° |
| 2026-05-06 22:25 | 44.24697 | 12.04303 | 4026 ft | 201 kts | 167° |
| 2026-05-06 22:26 | 44.23363 | 12.04919 | 4009 ft | 202 kts | 166° |
| 2026-05-06 22:26 | 44.22047 | 12.05533 | 3993 ft | 196 kts | 166° |
| 2026-05-06 22:26 | 44.20769 | 12.06126 | 4008 ft | 192 kts | 166° |
| 2026-05-06 22:26 | 44.19517 | 12.06709 | 4016 ft | 190 kts | 167° |
| 2026-05-06 22:27 | 44.18373 | 12.07629 | 3991 ft | 200 kts | 136° |
| 2026-05-06 22:27 | 44.17724 | 12.09361 | 4013 ft | 210 kts | 104° |
| 2026-05-06 22:27 | 44.17812 | 12.11402 | 4065 ft | 218 kts | 75° |
| 2026-05-06 22:27 | 44.18357 | 12.13410 | 4019 ft | 224 kts | 66° |
| 2026-05-06 22:28 | 44.19127 | 12.15296 | 4006 ft | 224 kts | 50° |
| 2026-05-06 22:28 | 44.20232 | 12.16810 | 4022 ft | 222 kts | 47° |
| 2026-05-06 22:28 | 44.21008 | 12.18640 | 3997 ft | 219 kts | 77° |
| 2026-05-06 22:28 | 44.21108 | 12.20703 | 4016 ft | 211 kts | 101° |
| 2026-05-06 22:29 | 44.21086 | 12.22733 | 4009 ft | 213 kts | 82° |
| 2026-05-06 22:29 | 44.21355 | 12.24788 | 4035 ft | 217 kts | 84° |
| 2026-05-06 22:29 | 44.21509 | 12.26886 | 4025 ft | 219 kts | 98° |
| 2026-05-06 22:29 | 44.20976 | 12.28792 | 4006 ft | 208 kts | 136° |
| 2026-05-06 22:30 | 44.19814 | 12.29911 | 3732 ft | 208 kts | 168° |
| 2026-05-06 22:30 | 44.18384 | 12.29944 | 3299 ft | 210 kts | 200° |
| 2026-05-06 22:30 | 44.17139 | 12.28875 | 2869 ft | 215 kts | 230° |
| 2026-05-06 22:30 | 44.16424 | 12.27049 | 2606 ft | 212 kts | 247° |
| 2026-05-06 22:31 | 44.15909 | 12.25191 | 2521 ft | 199 kts | 248° |
| 2026-05-06 22:31 | 44.15454 | 12.23472 | 2498 ft | 185 kts | 253° |
| 2026-05-06 22:31 | 44.15345 | 12.21728 | 2348 ft | 178 kts | 271° |
| 2026-05-06 22:31 | 44.15586 | 12.20056 | 2132 ft | 175 kts | 285° |
| 2026-05-06 22:32 | 44.15965 | 12.18477 | 1904 ft | 171 kts | 287° |
| 2026-05-06 22:32 | 44.16385 | 12.16955 | 1717 ft | 165 kts | 289° |
| 2026-05-06 22:32 | 44.16804 | 12.15507 | 1582 ft | 159 kts | 289° |
| 2026-05-06 22:32 | 44.17157 | 12.14088 | 1318 ft | 150 kts | 285° |
| 2026-05-06 22:33 | 44.17462 | 12.12710 | 955 ft | 147 kts | 284° |
| 2026-05-06 22:33 | 44.17877 | 12.11394 | 776 ft | 151 kts | 297° |
| 2026-05-06 22:33 | 44.18366 | 12.10116 | 424 ft | 146 kts | 294° |
| 2026-05-06 22:33 | 44.18821 | 12.08865 | 210 ft | 144 kts | 294° |
| 2026-05-06 22:34 | 44.19250 | 12.07701 | 101 ft | 124 kts | 295° |
| 2026-05-06 22:34 | 44.19516 | 12.06993 | 104 ft | 37 kts | 297° |
| 2026-05-06 22:34 | 44.19603 | 12.06813 | 103 ft | 10 kts | 350° |
| 2026-05-06 22:34 | 44.19667 | 12.06839 | 104 ft | 9 kts | 26° |
| 2026-05-06 22:35 | 44.19719 | 12.06887 | 102 ft | 9 kts | 57° |
| 2026-05-06 22:35 | 44.19705 | 12.06966 | 102 ft | 9 kts | 138° |
| 2026-05-06 22:35 | 44.19450 | 12.07100 | 103 ft | 84 kts | 155° |
| 2026-05-06 22:35 | 44.18941 | 12.07982 | 287 ft | 139 kts | 109° |
| 2026-05-06 22:36 | 44.19058 | 12.09427 | 766 ft | 175 kts | 59° |
| 2026-05-06 22:36 | 44.20189 | 12.10381 | 1065 ft | 218 kts | 359° |
| 2026-05-06 22:36 | 44.21570 | 12.09345 | 1108 ft | 255 kts | 299° |
| 2026-05-06 22:36 | 44.22276 | 12.07005 | 1619 ft | 260 kts | 292° |
| 2026-05-06 22:37 | 44.23023 | 12.04887 | 1610 ft | 234 kts | 292° |
| 2026-05-06 22:37 | 44.23643 | 12.02874 | 1482 ft | 219 kts | 292° |
| 2026-05-06 22:37 | 44.24282 | 12.01009 | 1407 ft | 212 kts | 294° |
| 2026-05-06 22:37 | 44.24955 | 11.99193 | 1313 ft | 204 kts | 293° |
| 2026-05-06 22:38 | 44.25520 | 11.97429 | 1236 ft | 196 kts | 286° |
| 2026-05-06 22:38 | 44.25529 | 11.95602 | 1016 ft | 189 kts | 243° |
| 2026-05-06 22:38 | 44.24523 | 11.94478 | 576 ft | 208 kts | 182° |
| 2026-05-06 22:38 | 44.23344 | 11.95275 | 425 ft | 188 kts | 122° |
| 2026-05-06 22:39 | 44.22746 | 11.96744 | 652 ft | 162 kts | 111° |
| 2026-05-06 22:39 | 44.22490 | 11.98317 | 747 ft | 184 kts | 98° |
| 2026-05-06 22:39 | 44.22190 | 11.99989 | 898 ft | 173 kts | 115° |
| 2026-05-06 22:39 | 44.21635 | 12.01378 | 828 ft | 159 kts | 117° |
| 2026-05-06 22:40 | 44.21114 | 12.02730 | 628 ft | 157 kts | 118° |
| 2026-05-06 22:40 | 44.20606 | 12.04068 | 351 ft | 156 kts | 118° |
| 2026-05-06 22:40 | 44.20130 | 12.05342 | 164 ft | 143 kts | 117° |
| 2026-05-06 22:40 | 44.19703 | 12.06506 | 104 ft | 123 kts | 117° |
| 2026-05-06 22:41 | 44.18512 | 12.08508 | 895 ft | 156 kts | 158° |
| 2026-05-06 22:41 | 44.17473 | 12.09142 | 1499 ft | 168 kts | 156° |
| 2026-05-06 22:41 | 44.16475 | 12.09960 | 1534 ft | 165 kts | 141° |
| 2026-05-06 22:42 | 44.15914 | 12.11319 | 1171 ft | 167 kts | 92° |
| 2026-05-06 22:42 | 44.16427 | 12.12865 | 830 ft | 204 kts | 32° |
| 2026-05-06 22:42 | 44.17749 | 12.13006 | 514 ft | 197 kts | 328° |
| 2026-05-06 22:42 | 44.18544 | 12.11647 | 456 ft | 168 kts | 281° |
| 2026-05-06 22:43 | 44.18637 | 12.10031 | 419 ft | 176 kts | 274° |
| 2026-05-06 22:43 | 44.18973 | 12.08437 | 164 ft | 169 kts | 297° |
| 2026-05-06 22:43 | 44.19482 | 12.07067 | 209 ft | 159 kts | 294° |
| 2026-05-06 22:43 | 44.20024 | 12.05580 | 779 ft | 176 kts | 296° |
| 2026-05-06 22:44 | 44.20548 | 12.04099 | 947 ft | 173 kts | 294° |
| 2026-05-06 22:44 | 44.21058 | 12.02537 | 1214 ft | 180 kts | 286° |
| 2026-05-06 22:44 | 44.21110 | 12.00815 | 1319 ft | 178 kts | 249° |
| 2026-05-06 22:44 | 44.20350 | 11.99636 | 1278 ft | 162 kts | 211° |
| 2026-05-06 22:45 | 44.19317 | 11.98867 | 1454 ft | 177 kts | 198° |
| 2026-05-06 22:45 | 44.18038 | 11.98876 | 1481 ft | 189 kts | 157° |
| 2026-05-06 22:45 | 44.17171 | 12.00119 | 1233 ft | 179 kts | 111° |
| 2026-05-06 22:45 | 44.16767 | 12.01670 | 1166 ft | 164 kts | 110° |
| 2026-05-06 22:46 | 44.16343 | 12.03198 | 1219 ft | 167 kts | 113° |
| 2026-05-06 22:46 | 44.15896 | 12.04643 | 1184 ft | 159 kts | 112° |
| 2026-05-06 22:46 | 44.15493 | 12.06111 | 1176 ft | 172 kts | 110° |
| 2026-05-06 22:46 | 44.15148 | 12.07703 | 1111 ft | 170 kts | 97° |
| 2026-05-06 22:47 | 44.15361 | 12.09248 | 936 ft | 161 kts | 57° |
| 2026-05-06 22:47 | 44.16160 | 12.10292 | 771 ft | 160 kts | 34° |
| 2026-05-06 22:47 | 44.17181 | 12.10969 | 590 ft | 166 kts | 8° |
| 2026-05-06 22:47 | 44.18239 | 12.10645 | 521 ft | 162 kts | 311° |
| 2026-05-06 22:48 | 44.18715 | 12.09217 | 253 ft | 160 kts | 288° |
| 2026-05-06 22:48 | 44.19180 | 12.07879 | 108 ft | 145 kts | 295° |
| 2026-05-06 22:48 | 44.19605 | 12.06720 | 102 ft | 125 kts | 296° |
| 2026-05-06 22:48 | 44.20074 | 12.05465 | 256 ft | 171 kts | 296° |
| 2026-05-06 22:49 | 44.20613 | 12.03976 | 1286 ft | 171 kts | 295° |
| 2026-05-06 22:49 | 44.21164 | 12.02378 | 1718 ft | 183 kts | 292° |
| 2026-05-06 22:49 | 44.21647 | 12.00826 | 1580 ft | 171 kts | 289° |
| 2026-05-06 22:49 | 44.21938 | 11.99319 | 1427 ft | 157 kts | 263° |
| 2026-05-06 22:50 | 44.21545 | 11.97993 | 1271 ft | 146 kts | 224° |
| 2026-05-06 22:50 | 44.20731 | 11.97146 | 1259 ft | 158 kts | 212° |
| 2026-05-06 22:50 | 44.19772 | 11.96402 | 1308 ft | 162 kts | 198° |
| 2026-05-06 22:50 | 44.18660 | 11.96470 | 1318 ft | 165 kts | 153° |
| 2026-05-06 22:51 | 44.17856 | 11.97656 | 1258 ft | 181 kts | 113° |
| 2026-05-06 22:51 | 44.17407 | 11.99258 | 1443 ft | 173 kts | 115° |
| 2026-05-06 22:51 | 44.16911 | 12.00817 | 1384 ft | 179 kts | 116° |
| 2026-05-06 22:51 | 44.16445 | 12.02427 | 1418 ft | 179 kts | 110° |
| 2026-05-06 22:52 | 44.16063 | 12.04081 | 1428 ft | 180 kts | 109° |
| 2026-05-06 22:52 | 44.15796 | 12.05198 | 1445 ft | 180 kts | 110° |
| 2026-05-06 22:52 | 44.15279 | 12.06763 | 1475 ft | 180 kts | 121° |
| 2026-05-06 22:52 | 44.14789 | 12.08385 | 1388 ft | 188 kts | 97° |
| 2026-05-06 22:53 | 44.15079 | 12.10124 | 1060 ft | 188 kts | 56° |
| 2026-05-06 22:53 | 44.15920 | 12.11383 | 930 ft | 170 kts | 40° |
| 2026-05-06 22:53 | 44.16842 | 12.12330 | 720 ft | 161 kts | 19° |
| 2026-05-06 22:53 | 44.17937 | 12.12334 | 637 ft | 160 kts | 330° |
| 2026-05-06 22:54 | 44.18531 | 12.11134 | 490 ft | 165 kts | 271° |
| 2026-05-06 22:54 | 44.18624 | 12.09548 | 283 ft | 160 kts | 285° |
| 2026-05-06 22:54 | 44.19065 | 12.08209 | 117 ft | 145 kts | 294° |
| 2026-05-06 22:54 | 44.19491 | 12.07037 | 103 ft | 129 kts | 297° |
| 2026-05-06 22:55 | 44.19994 | 12.05642 | 414 ft | 176 kts | 299° |
| 2026-05-06 22:55 | 44.20547 | 12.04228 | 1711 ft | 164 kts | 292° |
| 2026-05-06 22:55 | 44.21111 | 12.02663 | 2288 ft | 195 kts | 293° |
| 2026-05-06 22:55 | 44.21735 | 12.00885 | 2795 ft | 211 kts | 295° |
| 2026-05-06 22:56 | 44.22711 | 11.99447 | 3524 ft | 204 kts | 323° |
| 2026-05-06 22:56 | 44.23946 | 11.98563 | 3674 ft | 192 kts | 330° |
| 2026-05-06 22:56 | 44.25113 | 11.97764 | 3569 ft | 182 kts | 327° |
| 2026-05-06 22:56 | 44.26252 | 11.96993 | 3384 ft | 179 kts | 328° |
| 2026-05-06 22:57 | 44.27359 | 11.96255 | 3245 ft | 175 kts | 329° |
| 2026-05-06 22:57 | 44.28474 | 11.95572 | 3218 ft | 176 kts | 329° |
| 2026-05-06 22:57 | 44.29443 | 11.94594 | 3118 ft | 173 kts | 300° |
| 2026-05-06 22:57 | 44.29838 | 11.93040 | 2918 ft | 172 kts | 266° |
| 2026-05-06 22:58 | 44.29536 | 11.91482 | 2499 ft | 167 kts | 235° |
| 2026-05-06 22:58 | 44.28643 | 11.90529 | 2131 ft | 160 kts | 195° |
| 2026-05-06 22:58 | 44.27575 | 11.90668 | 1786 ft | 158 kts | 158° |
| 2026-05-06 22:58 | 44.26679 | 11.91455 | 1638 ft | 147 kts | 141° |
| 2026-05-06 22:59 | 44.25917 | 11.92478 | 1726 ft | 159 kts | 134° |
| 2026-05-06 22:59 | 44.25185 | 11.93646 | 1957 ft | 156 kts | 131° |
| 2026-05-06 22:59 | 44.24526 | 11.94848 | 1916 ft | 157 kts | 129° |
| 2026-05-06 22:59 | 44.23860 | 11.96040 | 1838 ft | 154 kts | 129° |
| 2026-05-06 23:00 | 44.23237 | 11.97260 | 1676 ft | 153 kts | 124° |
| 2026-05-06 23:00 | 44.22709 | 11.98569 | 1327 ft | 156 kts | 119° |
| 2026-05-06 23:00 | 44.22190 | 11.99857 | 1066 ft | 146 kts | 118° |
| 2026-05-06 23:00 | 44.21732 | 12.01072 | 873 ft | 147 kts | 116° |
| 2026-05-06 23:01 | 44.21250 | 12.02376 | 690 ft | 152 kts | 117° |
| 2026-05-06 23:01 | 44.20771 | 12.03638 | 445 ft | 145 kts | 116° |
| 2026-05-06 23:01 | 44.20318 | 12.04832 | 243 ft | 139 kts | 116° |
| 2026-05-06 23:01 | 44.19896 | 12.05966 | 108 ft | 120 kts | 116° |
| 2026-05-06 23:02 | 44.19557 | 12.06907 | 101 ft | 91 kts | 116° |
| 2026-05-06 23:02 | 44.19474 | 12.07125 | 103 ft | 0 kts | 118° |
| 2026-05-06 23:02 | 44.19471 | 12.07132 | 104 ft | 1 kts | 118° |
| 2026-05-06 23:02 | 44.19467 | 12.07144 | 103 ft | 2 kts | 118° |
| 2026-05-06 23:03 | 44.19462 | 12.07157 | 103 ft | 0 kts | 117° |